createdAt,value
2022-11-20T00:00:52.792Z,0.26
2022-11-20T00:03:24.088Z,0.23
2022-11-20T00:05:55.340Z,0.21
2022-11-20T00:08:26.451Z,0.23
2022-11-20T00:10:57.745Z,0.21
2022-11-20T00:13:28.744Z,0.24
2022-11-20T00:16:00.520Z,0.19
2022-11-20T00:18:31.361Z,0.16
2022-11-20T00:21:06.124Z,0.17
2022-11-20T00:23:36.986Z,0.19
2022-11-20T00:26:09.146Z,0.15
2022-11-20T00:28:40.269Z,0.15
2022-11-20T00:31:15.003Z,0.13
2022-11-20T00:33:46.093Z,0.12
2022-11-20T00:36:18.338Z,0.13
2022-11-20T00:38:49.509Z,0.09
2022-11-20T00:41:20.261Z,0.08
2022-11-20T00:43:51.504Z,0.08
2022-11-20T00:46:26.372Z,0.07
2022-11-20T00:48:57.325Z,0.05
2022-11-20T00:51:29.180Z,0.03
2022-11-20T00:54:01.125Z,0.03
2022-11-20T00:56:32.133Z,-0.01
2022-11-20T00:59:02.948Z,-0.03
2022-11-20T01:01:33.759Z,0.01
2022-11-20T01:04:04.605Z,-0.02
2022-11-20T01:06:36.641Z,-0.01
2022-11-20T01:09:09.849Z,-0.05
2022-11-20T01:11:41.877Z,-0.06
2022-11-20T01:14:14.536Z,-0.05
2022-11-20T01:16:47.124Z,-0.08
2022-11-20T01:19:19.689Z,-0.08
2022-11-20T01:21:52.626Z,-0.10
2022-11-20T01:24:23.875Z,-0.11
2022-11-20T01:26:54.695Z,-0.09
2022-11-20T01:29:26.625Z,-0.10
2022-11-20T01:31:57.400Z,-0.11
2022-11-20T01:34:28.498Z,-0.13
2022-11-20T01:36:59.191Z,-0.13
2022-11-20T01:39:30.235Z,-0.12
2022-11-20T01:42:19.108Z,-0.09
2022-11-20T01:44:54.217Z,-0.12
2022-11-20T01:47:29.360Z,-0.09
2022-11-20T01:50:01.644Z,-0.09
2022-11-20T01:52:33.938Z,-0.10
2022-11-20T01:55:12.141Z,-0.11
2022-11-20T01:57:42.986Z,-0.10
2022-11-20T02:00:15.227Z,-0.08
2022-11-20T02:02:48.007Z,-0.11
2022-11-20T02:05:20.422Z,-0.08
2022-11-20T02:07:51.864Z,-0.11
2022-11-20T02:10:23.093Z,-0.12
2022-11-20T02:13:12.219Z,-0.12
2022-11-20T02:15:44.224Z,-0.12
2022-11-20T02:18:16.482Z,-0.10
2022-11-20T02:20:48.431Z,-0.12
2022-11-20T02:23:23.654Z,-0.18
2022-11-20T02:25:55.730Z,-0.17
2022-11-20T02:28:26.552Z,-0.17
2022-11-20T02:30:57.389Z,-0.19
2022-11-20T02:33:28.193Z,-0.21
2022-11-20T02:35:59.174Z,-0.23
2022-11-20T02:38:29.968Z,-0.22
2022-11-20T02:41:00.742Z,-0.23
2022-11-20T02:43:31.510Z,-0.21
2022-11-20T02:46:02.435Z,-0.21
2022-11-20T02:48:34.085Z,-0.24
2022-11-20T02:51:04.926Z,-0.25
2022-11-20T02:53:35.753Z,-0.25
2022-11-20T02:56:06.771Z,-0.26
2022-11-20T02:58:37.669Z,-0.28
2022-11-20T03:01:08.956Z,-0.28
2022-11-20T03:03:39.866Z,-0.28
2022-11-20T03:06:10.624Z,-0.29
2022-11-20T03:08:41.545Z,-0.30
2022-11-20T03:11:12.608Z,-0.31
2022-11-20T03:13:43.400Z,-0.32
2022-11-20T03:16:15.404Z,-0.32
2022-11-20T03:18:47.302Z,-0.33
2022-11-20T03:21:18.202Z,-0.34
2022-11-20T03:23:48.929Z,-0.33
2022-11-20T03:26:20.640Z,-0.35
2022-11-20T03:28:52.488Z,-0.40
2022-11-20T03:31:24.888Z,-0.43
2022-11-20T03:33:56.161Z,-0.42
2022-11-20T03:36:27.571Z,-0.41
2022-11-20T03:38:59.067Z,-0.38
2022-11-20T03:41:31.691Z,-0.39
2022-11-20T03:44:04.403Z,-0.38
2022-11-20T03:46:35.607Z,-0.40
2022-11-20T03:49:06.711Z,-0.39
2022-11-20T03:51:38.123Z,-0.38
2022-11-20T03:54:09.777Z,-0.40
2022-11-20T03:56:40.868Z,-0.38
2022-11-20T03:59:12.387Z,-0.37
2022-11-20T04:01:48.196Z,-0.38
2022-11-20T04:04:15.579Z,-0.36
2022-11-20T04:06:46.651Z,-0.40
2022-11-20T04:09:17.670Z,-0.41
2022-11-20T04:11:48.446Z,-0.41
2022-11-20T04:14:19.415Z,-0.41
2022-11-20T04:16:50.344Z,-0.37
2022-11-20T04:19:21.242Z,-0.39
2022-11-20T04:21:52.134Z,-0.37
2022-11-20T04:24:23.338Z,-0.38
2022-11-20T04:26:54.239Z,-0.38
2022-11-20T04:29:25.005Z,-0.37
2022-11-20T04:31:55.845Z,-0.37
2022-11-20T04:34:26.639Z,-0.34
2022-11-20T04:36:57.960Z,-0.32
2022-11-20T04:39:28.694Z,-0.34
2022-11-20T04:42:06.871Z,-0.34
2022-11-20T04:44:37.739Z,-0.33
2022-11-20T04:47:08.574Z,-0.33
2022-11-20T04:49:39.594Z,-0.33
2022-11-20T04:52:10.527Z,-0.29
2022-11-20T04:54:41.418Z,-0.30
2022-11-20T04:57:14.592Z,-0.31
2022-11-20T04:59:44.964Z,-0.30
2022-11-20T05:02:16.154Z,-0.27
2022-11-20T05:04:46.887Z,-0.28
2022-11-20T05:07:17.723Z,-0.29
2022-11-20T05:09:48.607Z,-0.28
2022-11-20T05:12:19.412Z,-0.26
2022-11-20T05:14:50.392Z,-0.26
2022-11-20T05:17:21.214Z,-0.25
2022-11-20T05:19:53.224Z,-0.25
2022-11-20T05:22:24.189Z,-0.21
2022-11-20T05:24:55.149Z,-0.22
2022-11-20T05:27:26.019Z,-0.21
2022-11-20T05:29:57.045Z,-0.22
2022-11-20T05:32:28.163Z,-0.20
2022-11-20T05:34:58.950Z,-0.18
2022-11-20T05:37:29.705Z,-0.16
2022-11-20T05:40:00.641Z,-0.12
2022-11-20T05:42:33.014Z,-0.12
2022-11-20T05:45:05.538Z,-0.10
2022-11-20T05:47:36.386Z,-0.07
2022-11-20T05:50:07.409Z,-0.04
2022-11-20T05:52:38.282Z,-0.04
2022-11-20T05:55:09.484Z,-0.02
2022-11-20T05:57:41.799Z,0.04
2022-11-20T06:00:12.963Z,0.05
2022-11-20T06:02:43.724Z,0.05
2022-11-20T06:05:14.655Z,0.13
2022-11-20T06:07:45.570Z,0.33
2022-11-20T06:10:16.420Z,0.45
2022-11-20T06:12:47.309Z,0.59
2022-11-20T06:15:18.076Z,0.68
2022-11-20T06:17:49.132Z,0.77
2022-11-20T06:20:20.069Z,0.78
2022-11-20T06:22:51.011Z,0.82
2022-11-20T06:25:21.783Z,0.88
2022-11-20T06:27:52.854Z,0.97
2022-11-20T06:30:23.663Z,1.03
2022-11-20T06:32:54.577Z,1.04
2022-11-20T06:35:25.594Z,1.02
2022-11-20T06:37:57.944Z,0.93
2022-11-20T06:40:28.772Z,0.88
2022-11-20T06:42:59.532Z,0.77
2022-11-20T06:45:30.738Z,0.72
2022-11-20T06:48:01.782Z,0.72
2022-11-20T06:50:32.691Z,0.73
2022-11-20T06:53:04.212Z,0.76
2022-11-20T06:55:35.276Z,0.78
2022-11-20T06:58:06.211Z,0.81
2022-11-20T07:00:37.045Z,0.83
2022-11-20T07:03:08.745Z,0.88
2022-11-20T07:05:39.708Z,0.88
2022-11-20T07:08:10.427Z,0.94
2022-11-20T07:10:41.276Z,1.00
2022-11-20T07:13:12.116Z,1.00
2022-11-20T07:15:42.873Z,1.01
2022-11-20T07:18:13.819Z,1.06
2022-11-20T07:20:44.590Z,1.08
2022-11-20T07:23:15.406Z,1.12
2022-11-20T07:25:46.305Z,1.17
2022-11-20T07:28:17.182Z,1.21
2022-11-20T07:30:52.351Z,1.20
2022-11-20T07:33:23.281Z,1.18
2022-11-20T07:35:54.242Z,1.20
2022-11-20T07:38:25.162Z,1.21
2022-11-20T07:40:58.743Z,1.19
2022-11-20T07:43:29.708Z,1.11
2022-11-20T07:46:01.266Z,1.09
2022-11-20T07:48:32.026Z,1.08
2022-11-20T07:51:02.921Z,1.09
2022-11-20T07:53:34.099Z,1.08
2022-11-20T07:56:05.459Z,1.09
2022-11-20T07:58:36.294Z,1.09
2022-11-20T08:01:08.358Z,1.12
2022-11-20T08:03:39.947Z,1.16
2022-11-20T08:06:10.874Z,1.21
2022-11-20T08:08:42.928Z,1.34
2022-11-20T08:11:32.404Z,1.53
2022-11-20T08:14:15.358Z,1.68
2022-11-20T08:16:48.132Z,1.76
2022-11-20T08:19:20.514Z,1.86
2022-11-20T08:21:51.678Z,1.74
2022-11-20T08:24:22.603Z,1.68
2022-11-20T08:26:53.456Z,1.65
2022-11-20T08:29:24.727Z,1.62
2022-11-20T08:31:56.068Z,1.58
2022-11-20T08:34:27.109Z,1.58
2022-11-20T08:36:57.943Z,1.58
2022-11-20T08:39:28.806Z,1.59
2022-11-20T08:41:59.898Z,1.58
2022-11-20T08:44:31.392Z,1.65
2022-11-20T08:47:02.735Z,1.72
2022-11-20T08:49:33.445Z,1.73
2022-11-20T08:52:04.320Z,1.76
2022-11-20T08:54:35.316Z,1.70
2022-11-20T08:57:07.437Z,1.67
2022-11-20T09:00:04.416Z,1.67
2022-11-20T09:02:11.394Z,1.68
2022-11-20T09:04:42.224Z,1.67
2022-11-20T09:07:13.248Z,1.69
2022-11-20T09:09:44.231Z,1.70
2022-11-20T09:12:15.315Z,1.72
2022-11-20T09:14:48.761Z,1.76
2022-11-20T09:17:18.568Z,1.77
2022-11-20T09:19:49.447Z,1.76
2022-11-20T09:22:20.487Z,1.75
2022-11-20T09:24:51.365Z,1.78
2022-11-20T09:27:22.842Z,1.72
2022-11-20T09:29:53.625Z,1.69
2022-11-20T09:32:24.488Z,1.67
2022-11-20T09:34:55.339Z,1.68
2022-11-20T09:37:26.286Z,1.68
2022-11-20T09:39:57.042Z,1.65
2022-11-20T09:42:32.408Z,1.67
2022-11-20T09:45:10.864Z,1.66
2022-11-20T09:47:49.159Z,1.65
2022-11-20T09:50:21.453Z,1.65
2022-11-20T09:52:54.267Z,1.66
2022-11-20T09:55:25.740Z,1.67
2022-11-20T09:57:57.360Z,1.65
2022-11-20T10:00:29.706Z,1.65
2022-11-20T10:03:16.887Z,1.67
2022-11-20T10:05:49.221Z,1.71
2022-11-20T10:08:21.702Z,1.74
2022-11-20T10:10:54.043Z,1.71
2022-11-20T10:13:32.340Z,1.70
2022-11-20T10:16:10.665Z,1.70
2022-11-20T10:18:42.998Z,1.68
2022-11-20T10:21:27.459Z,1.67
2022-11-20T10:24:00.761Z,1.68
2022-11-20T10:26:33.131Z,1.67
2022-11-20T10:29:11.471Z,1.69
2022-11-20T10:31:47.028Z,1.68
2022-11-20T10:34:22.606Z,1.65
2022-11-20T10:36:53.672Z,1.66
2022-11-20T10:39:37.717Z,1.68
2022-11-20T10:42:10.095Z,1.63
2022-11-20T10:45:04.405Z,1.66
2022-11-20T10:47:33.746Z,1.58
2022-11-20T10:50:06.085Z,1.56
2022-11-20T10:52:38.411Z,1.62
2022-11-20T10:55:26.013Z,1.81
2022-11-20T10:57:58.302Z,1.78
2022-11-20T11:00:29.148Z,1.77
2022-11-20T11:03:04.202Z,1.75
2022-11-20T11:05:36.729Z,1.74
2022-11-20T11:08:09.273Z,1.70
2022-11-20T11:10:56.901Z,1.63
2022-11-20T11:13:28.872Z,1.61
2022-11-20T11:16:00.133Z,1.66
2022-11-20T11:18:35.164Z,1.59
2022-11-20T11:21:07.024Z,1.65
2022-11-20T11:23:41.805Z,1.55
2022-11-20T11:26:23.331Z,1.48
2022-11-20T11:29:01.730Z,1.49
2022-11-20T11:31:33.615Z,1.47
2022-11-20T11:34:11.898Z,1.49
2022-11-20T11:36:43.244Z,1.52
2022-11-20T11:39:15.454Z,1.48
2022-11-20T11:41:46.388Z,1.47
2022-11-20T11:44:45.449Z,1.56
2022-11-20T11:47:23.847Z,1.45
2022-11-20T11:50:12.439Z,1.43
2022-11-20T11:53:01.234Z,1.49
2022-11-20T11:55:39.372Z,1.44
2022-11-20T11:58:24.032Z,1.50
2022-11-20T12:00:59.393Z,1.56
2022-11-20T12:03:42.150Z,1.57
2022-11-20T12:06:17.111Z,1.48
2022-11-20T12:09:01.486Z,1.53
2022-11-20T12:11:34.219Z,1.39
2022-11-20T12:14:24.608Z,1.35
2022-11-20T12:16:56.932Z,1.34
2022-11-20T12:19:29.578Z,1.43
2022-11-20T12:22:18.163Z,1.35
2022-11-20T12:24:53.222Z,1.31
2022-11-20T12:27:37.526Z,1.33
2022-11-20T12:30:10.181Z,1.28
2022-11-20T12:32:54.853Z,1.22
2022-11-20T12:35:36.131Z,1.27
2022-11-20T12:38:11.574Z,1.27
2022-11-20T12:40:55.591Z,1.22
2022-11-20T12:43:46.000Z,1.15
2022-11-20T12:46:30.271Z,1.13
2022-11-20T12:49:05.456Z,1.16
2022-11-20T12:51:38.267Z,1.20
2022-11-20T12:54:26.894Z,1.16
2022-11-20T12:57:03.951Z,1.24
2022-11-20T12:59:42.279Z,1.12
2022-11-20T13:02:14.676Z,1.19
2022-11-20T13:04:53.075Z,1.14
2022-11-20T13:07:25.483Z,1.16
2022-11-20T13:09:56.891Z,1.17
2022-11-20T13:12:29.377Z,1.14
2022-11-20T13:15:01.911Z,1.20
2022-11-20T13:17:45.948Z,1.16
2022-11-20T13:20:21.205Z,1.16
2022-11-20T13:22:59.400Z,1.18
2022-11-20T13:25:31.565Z,1.23
2022-11-20T13:28:04.500Z,1.06
2022-11-20T13:30:36.068Z,0.98
2022-11-20T13:33:11.792Z,1.03
2022-11-20T13:35:44.126Z,1.04
2022-11-20T13:38:16.331Z,0.99
2022-11-20T13:41:00.763Z,0.98
2022-11-20T13:43:38.865Z,0.96
2022-11-20T13:46:11.190Z,0.98
2022-11-20T13:48:42.967Z,1.06
2022-11-20T13:51:17.953Z,1.06
2022-11-20T13:54:08.623Z,1.01
2022-11-20T13:56:44.088Z,1.03
2022-11-20T13:59:32.501Z,1.03
2022-11-20T14:02:03.501Z,1.03
2022-11-20T14:04:38.929Z,1.02
2022-11-20T14:07:10.858Z,1.03
2022-11-20T14:09:43.321Z,1.04
2022-11-20T14:12:18.460Z,1.09
2022-11-20T14:14:53.525Z,1.11
2022-11-20T14:17:26.573Z,1.08
2022-11-20T14:19:59.163Z,1.07
2022-11-20T14:22:30.543Z,1.06
2022-11-20T14:25:08.853Z,1.07
2022-11-20T14:27:41.280Z,1.08
2022-11-20T14:30:17.106Z,1.08
2022-11-20T14:32:48.885Z,1.11
2022-11-20T14:35:24.473Z,1.12
2022-11-20T14:37:55.713Z,1.20
2022-11-20T14:40:35.942Z,1.15
2022-11-20T14:43:22.966Z,1.15
2022-11-20T14:46:07.003Z,1.15
2022-11-20T14:48:39.318Z,1.17
2022-11-20T14:51:13.643Z,1.17
2022-11-20T14:53:44.501Z,1.18
2022-11-20T14:56:16.750Z,1.21
2022-11-20T14:58:48.963Z,1.17
2022-11-20T15:01:21.441Z,1.18
2022-11-20T15:03:53.935Z,1.17
2022-11-20T15:06:26.346Z,1.17
2022-11-20T15:08:57.530Z,1.14
2022-11-20T15:11:30.263Z,1.13
2022-11-20T15:14:02.542Z,1.10
2022-11-20T15:16:34.160Z,1.10
2022-11-20T15:19:06.563Z,1.14
2022-11-20T15:21:37.410Z,1.11
2022-11-20T15:24:09.818Z,1.13
2022-11-20T15:26:43.449Z,1.12
2022-11-20T15:29:15.921Z,1.13
2022-11-20T15:31:46.994Z,1.10
2022-11-20T15:34:17.994Z,1.12
2022-11-20T15:36:48.869Z,1.10
2022-11-20T15:39:19.858Z,1.08
2022-11-20T15:41:50.559Z,1.04
2022-11-20T15:44:21.570Z,1.01
2022-11-20T15:46:53.007Z,0.98
2022-11-20T15:49:24.843Z,0.97
2022-11-20T15:51:55.921Z,1.05
2022-11-20T15:54:27.041Z,1.03
2022-11-20T15:56:58.260Z,0.99
2022-11-20T15:59:29.220Z,1.01
2022-11-20T16:01:59.997Z,1.01
2022-11-20T16:04:30.916Z,1.00
2022-11-20T16:07:01.847Z,0.99
2022-11-20T16:09:32.762Z,0.98
2022-11-20T16:12:03.589Z,0.96
2022-11-20T16:14:51.962Z,0.94
2022-11-20T16:17:24.406Z,0.93
2022-11-20T16:19:55.428Z,0.98
2022-11-20T16:22:26.371Z,0.95
2022-11-20T16:24:57.139Z,0.98
2022-11-20T16:27:27.961Z,0.91
2022-11-20T16:29:58.811Z,0.92
2022-11-20T16:32:29.592Z,0.89
2022-11-20T16:35:00.349Z,0.86
2022-11-20T16:37:32.588Z,0.89
2022-11-20T16:40:03.576Z,0.89
2022-11-20T16:42:35.710Z,0.95
2022-11-20T16:45:06.975Z,0.95
2022-11-20T16:47:38.353Z,0.97
2022-11-20T16:50:09.722Z,0.96
2022-11-20T16:52:40.491Z,0.95
2022-11-20T16:55:11.472Z,0.94
2022-11-20T16:57:42.870Z,0.93
2022-11-20T17:00:13.978Z,0.90
2022-11-20T17:02:44.823Z,0.89
2022-11-20T17:05:15.836Z,0.92
2022-11-20T17:07:46.773Z,0.91
2022-11-20T17:10:17.917Z,0.89
2022-11-20T17:12:48.655Z,0.91
2022-11-20T17:15:19.630Z,0.93
2022-11-20T17:17:50.387Z,0.91
2022-11-20T17:20:21.436Z,0.93
2022-11-20T17:22:52.335Z,0.95
2022-11-20T17:25:23.535Z,1.00
2022-11-20T17:27:55.347Z,0.98
2022-11-20T17:30:26.127Z,0.96
2022-11-20T17:32:56.957Z,0.96
2022-11-20T17:35:27.905Z,0.99
2022-11-20T17:37:59.037Z,1.03
2022-11-20T17:40:30.091Z,1.02
2022-11-20T17:43:00.843Z,1.00
2022-11-20T17:45:31.668Z,0.97
2022-11-20T17:48:02.450Z,0.95
2022-11-20T17:50:33.287Z,0.94
2022-11-20T17:53:04.145Z,0.95
2022-11-20T17:55:36.643Z,0.98
2022-11-20T17:58:07.796Z,0.99
2022-11-20T18:00:38.627Z,1.01
2022-11-20T18:03:09.585Z,1.05
2022-11-20T18:05:40.430Z,1.07
2022-11-20T18:08:11.294Z,1.07
2022-11-20T18:10:42.114Z,1.06
2022-11-20T18:13:13.033Z,1.07
2022-11-20T18:15:43.799Z,1.08
2022-11-20T18:18:15.074Z,1.06
2022-11-20T18:20:45.865Z,1.04
2022-11-20T18:23:16.645Z,1.04
2022-11-20T18:25:47.723Z,1.02
2022-11-20T18:28:20.054Z,1.04
2022-11-20T18:30:51.018Z,0.96
2022-11-20T18:33:26.917Z,0.92
2022-11-20T18:35:54.562Z,0.92
2022-11-20T18:38:25.315Z,0.92
2022-11-20T18:40:57.742Z,0.93
2022-11-20T18:43:46.468Z,0.97
2022-11-20T18:46:17.648Z,0.94
2022-11-20T18:48:48.695Z,0.94
2022-11-20T18:51:20.328Z,0.92
2022-11-20T18:53:51.204Z,0.94
2022-11-20T18:56:22.230Z,0.95
2022-11-20T18:58:54.684Z,0.96
2022-11-20T19:01:25.982Z,0.97
2022-11-20T19:03:57.252Z,0.99
2022-11-20T19:06:28.229Z,0.98
2022-11-20T19:08:58.943Z,1.00
2022-11-20T19:11:29.845Z,0.97
2022-11-20T19:14:00.594Z,0.96
2022-11-20T19:16:32.003Z,0.95
2022-11-20T19:19:03.790Z,0.95
2022-11-20T19:21:34.857Z,0.91
2022-11-20T19:24:05.721Z,0.91
2022-11-20T19:26:37.610Z,0.91
2022-11-20T19:29:08.446Z,0.88
2022-11-20T19:31:39.258Z,0.89
2022-11-20T19:34:12.175Z,0.86
2022-11-20T19:36:45.094Z,0.87
2022-11-20T19:39:16.258Z,0.87
2022-11-20T19:41:47.190Z,0.90
2022-11-20T19:44:18.412Z,0.88
2022-11-20T19:46:51.076Z,0.90
2022-11-20T19:49:22.497Z,0.93
2022-11-20T19:51:53.613Z,0.93
2022-11-20T19:54:25.020Z,0.95
2022-11-20T19:56:55.975Z,0.97
2022-11-20T19:59:27.113Z,0.97
2022-11-20T20:01:58.374Z,0.97
2022-11-20T20:04:29.490Z,0.95
2022-11-20T20:07:00.938Z,0.96
2022-11-20T20:09:31.852Z,0.93
2022-11-20T20:12:02.625Z,0.92
2022-11-20T20:14:34.837Z,0.92
2022-11-20T20:17:05.558Z,0.92
2022-11-20T20:19:36.401Z,0.92
2022-11-20T20:22:07.204Z,0.91
2022-11-20T20:24:37.929Z,0.93
2022-11-20T20:27:08.875Z,0.92
2022-11-20T20:29:39.629Z,0.93
2022-11-20T20:32:10.739Z,0.94
2022-11-20T20:34:41.422Z,0.95
2022-11-20T20:37:12.142Z,0.98
2022-11-20T20:39:42.960Z,0.99
2022-11-20T20:42:13.701Z,1.01
2022-11-20T20:45:02.191Z,1.02
2022-11-20T20:47:33.815Z,1.03
2022-11-20T20:50:05.827Z,1.02
2022-11-20T20:52:36.850Z,1.04
2022-11-20T20:55:08.061Z,1.03
2022-11-20T20:57:38.872Z,1.03
2022-11-20T21:00:10.590Z,1.03
2022-11-20T21:02:41.514Z,1.02
2022-11-20T21:05:12.545Z,1.01
2022-11-20T21:08:01.182Z,1.00
2022-11-20T21:10:32.223Z,0.99
2022-11-20T21:13:03.247Z,0.99
2022-11-20T21:15:34.090Z,0.98
2022-11-20T21:18:05.037Z,0.99
2022-11-20T21:20:54.079Z,0.99
2022-11-20T21:23:25.075Z,0.98
2022-11-20T21:25:55.928Z,0.96
2022-11-20T21:28:26.818Z,0.95
2022-11-20T21:31:05.053Z,0.95
2022-11-20T21:33:39.775Z,0.92
2022-11-20T21:36:11.695Z,0.87
2022-11-20T21:38:42.561Z,0.87
2022-11-20T21:41:14.131Z,0.86
2022-11-20T21:43:45.706Z,0.85
2022-11-20T21:46:17.158Z,0.85
2022-11-20T21:48:48.153Z,0.83
2022-11-20T21:51:23.206Z,0.84
2022-11-20T21:53:55.252Z,0.84
2022-11-20T21:56:26.710Z,0.85
2022-11-20T21:58:58.301Z,0.86
2022-11-20T22:01:30.571Z,0.85
2022-11-20T22:04:03.034Z,0.85
2022-11-20T22:06:35.044Z,0.86
2022-11-20T22:09:05.955Z,0.86
2022-11-20T22:11:36.898Z,0.86
2022-11-20T22:14:23.541Z,0.87
2022-11-20T22:16:55.338Z,0.84
2022-11-20T22:19:26.480Z,0.83
2022-11-20T22:21:58.322Z,0.84
2022-11-20T22:24:29.256Z,0.84
2022-11-20T22:27:00.259Z,0.84
2022-11-20T22:29:31.590Z,0.86
2022-11-20T22:32:02.377Z,0.85
2022-11-20T22:34:33.281Z,0.86
2022-11-20T22:37:04.066Z,0.86
2022-11-20T22:39:34.841Z,0.84
2022-11-20T22:42:05.829Z,0.82
2022-11-20T22:44:36.705Z,0.80
2022-11-20T22:47:11.344Z,0.79
2022-11-20T22:49:40.838Z,0.78
2022-11-20T22:52:11.780Z,0.76
2022-11-20T22:54:42.812Z,0.74
2022-11-20T22:57:13.652Z,0.74
2022-11-20T22:59:44.446Z,0.73
2022-11-20T23:02:15.330Z,0.71
2022-11-20T23:04:47.474Z,0.71
2022-11-20T23:07:18.337Z,0.71
2022-11-20T23:09:49.186Z,0.69
2022-11-20T23:12:19.926Z,0.67
2022-11-20T23:14:50.622Z,0.66
2022-11-20T23:17:21.464Z,0.63
2022-11-20T23:19:52.494Z,0.62
2022-11-20T23:22:23.183Z,0.63
2022-11-20T23:24:54.036Z,0.60
2022-11-20T23:27:28.296Z,0.59
2022-11-20T23:29:59.157Z,0.59
2022-11-20T23:32:30.883Z,0.59
2022-11-20T23:35:01.687Z,0.57
2022-11-20T23:37:32.662Z,0.59
2022-11-20T23:40:04.319Z,0.55
2022-11-20T23:42:35.300Z,0.53
2022-11-20T23:45:06.191Z,0.51
2022-11-20T23:47:37.025Z,0.49
2022-11-20T23:50:07.827Z,0.48
2022-11-20T23:52:38.598Z,0.47
2022-11-20T23:55:09.316Z,0.48
2022-11-20T23:57:40.220Z,0.49
